sensor_id;sensor_type;location;lat;lon;timestamp;temperature;humidity
10010;DHT22;5044;48.652;9.250;2022-10-31T00:00:23;11.90;99.90
10010;DHT22;5044;48.652;9.250;2022-10-31T00:02:50;11.90;99.90
10010;DHT22;5044;48.652;9.250;2022-10-31T00:05:16;11.90;99.90
10010;DHT22;5044;48.652;9.250;2022-10-31T00:07:43;11.90;99.90
10010;DHT22;5044;48.652;9.250;2022-10-31T00:10:10;11.80;99.90
10010;DHT22;5044;48.652;9.250;2022-10-31T00:12:39;11.90;99.90
10010;DHT22;5044;48.652;9.250;2022-10-31T00:15:07;11.80;99.90
10010;DHT22;5044;48.652;9.250;2022-10-31T00:17:35;11.90;99.90
10010;DHT22;5044;48.652;9.250;2022-10-31T00:20:03;11.80;99.90
10010;DHT22;5044;48.652;9.250;2022-10-31T00:22:30;11.80;99.90
10010;DHT22;5044;48.652;9.250;2022-10-31T00:24:57;11.80;99.90
10010;DHT22;5044;48.652;9.250;2022-10-31T00:27:26;11.80;99.90
10010;DHT22;5044;48.652;9.250;2022-10-31T00:29:54;11.80;99.90
10010;DHT22;5044;48.652;9.250;2022-10-31T00:32:21;11.70;99.90
10010;DHT22;5044;48.652;9.250;2022-10-31T00:34:48;11.80;99.90
10010;DHT22;5044;48.652;9.250;2022-10-31T00:37:15;11.80;99.90
10010;DHT22;5044;48.652;9.250;2022-10-31T00:39:42;11.80;99.90
10010;DHT22;5044;48.652;9.250;2022-10-31T00:42:10;11.80;99.90
10010;DHT22;5044;48.652;9.250;2022-10-31T00:44:37;11.70;99.90
10010;DHT22;5044;48.652;9.250;2022-10-31T00:47:06;11.90;99.90
10010;DHT22;5044;48.652;9.250;2022-10-31T00:49:33;12.00;99.90
10010;DHT22;5044;48.652;9.250;2022-10-31T00:51:59;11.80;99.90
10010;DHT22;5044;48.652;9.250;2022-10-31T00:54:27;12.00;99.90
10010;DHT22;5044;48.652;9.250;2022-10-31T00:56:54;11.80;99.90
10010;DHT22;5044;48.652;9.250;2022-10-31T00:59:21;11.80;99.90
10010;DHT22;5044;48.652;9.250;2022-10-31T01:01:48;11.80;99.90
10010;DHT22;5044;48.652;9.250;2022-10-31T01:04:16;11.70;99.90
10010;DHT22;5044;48.652;9.250;2022-10-31T01:06:43;11.80;99.90
10010;DHT22;5044;48.652;9.250;2022-10-31T01:09:11;11.80;99.90
10010;DHT22;5044;48.652;9.250;2022-10-31T01:11:38;11.80;99.90
10010;DHT22;5044;48.652;9.250;2022-10-31T01:14:05;11.70;99.90
10010;DHT22;5044;48.652;9.250;2022-10-31T01:16:32;11.70;99.90
10010;DHT22;5044;48.652;9.250;2022-10-31T01:18:59;11.70;99.90
10010;DHT22;5044;48.652;9.250;2022-10-31T01:21:28;11.80;99.90
10010;DHT22;5044;48.652;9.250;2022-10-31T01:23:56;11.70;99.90
10010;DHT22;5044;48.652;9.250;2022-10-31T01:26:25;11.60;99.90
10010;DHT22;5044;48.652;9.250;2022-10-31T01:28:53;11.60;99.90
10010;DHT22;5044;48.652;9.250;2022-10-31T01:31:22;11.60;99.90
10010;DHT22;5044;48.652;9.250;2022-10-31T01:33:49;11.90;99.90
10010;DHT22;5044;48.652;9.250;2022-10-31T01:36:18;11.60;99.90
10010;DHT22;5044;48.652;9.250;2022-10-31T01:38:49;11.60;99.90
10010;DHT22;5044;48.652;9.250;2022-10-31T01:41:19;11.60;99.90
10010;DHT22;5044;48.652;9.250;2022-10-31T01:43:50;11.60;99.90
10010;DHT22;5044;48.652;9.250;2022-10-31T01:46:20;11.60;99.90
10010;DHT22;5044;48.652;9.250;2022-10-31T01:48:49;11.60;99.90
10010;DHT22;5044;48.652;9.250;2022-10-31T01:51:19;11.50;99.90
10010;DHT22;5044;48.652;9.250;2022-10-31T01:53:51;11.50;99.90
10010;DHT22;5044;48.652;9.250;2022-10-31T01:56:19;11.50;99.90
10010;DHT22;5044;48.652;9.250;2022-10-31T01:58:47;11.40;99.90
10010;DHT22;5044;48.652;9.250;2022-10-31T02:01:14;11.40;99.90
10010;DHT22;5044;48.652;9.250;2022-10-31T02:03:42;11.30;99.90
10010;DHT22;5044;48.652;9.250;2022-10-31T02:08:49;11.30;99.90
10010;DHT22;5044;48.652;9.250;2022-10-31T07:50:08;9.50;99.90
10010;DHT22;5044;48.652;9.250;2022-10-31T07:52:40;9.50;99.90
10010;DHT22;5044;48.652;9.250;2022-10-31T07:59:08;9.80;99.90
10010;DHT22;5044;48.652;9.250;2022-10-31T08:02:00;9.80;99.90
10010;DHT22;5044;48.652;9.250;2022-10-31T08:04:28;9.90;99.90
10010;DHT22;5044;48.652;9.250;2022-10-31T08:06:57;10.00;99.90
10010;DHT22;5044;48.652;9.250;2022-10-31T08:09:24;10.10;99.90
10010;DHT22;5044;48.652;9.250;2022-10-31T08:11:53;10.10;99.90
10010;DHT22;5044;48.652;9.250;2022-10-31T08:14:20;10.20;99.90
10010;DHT22;5044;48.652;9.250;2022-10-31T08:16:48;10.30;99.90
10010;DHT22;5044;48.652;9.250;2022-10-31T08:19:15;10.40;99.90
10010;DHT22;5044;48.652;9.250;2022-10-31T08:21:42;10.50;99.90
10010;DHT22;5044;48.652;9.250;2022-10-31T08:24:12;10.50;99.90
10010;DHT22;5044;48.652;9.250;2022-10-31T08:26:39;10.60;99.90
10010;DHT22;5044;48.652;9.250;2022-10-31T08:29:06;10.70;99.90
10010;DHT22;5044;48.652;9.250;2022-10-31T08:31:33;10.80;99.90
10010;DHT22;5044;48.652;9.250;2022-10-31T08:34:00;10.80;99.90
10010;DHT22;5044;48.652;9.250;2022-10-31T08:36:29;11.10;99.90
10010;DHT22;5044;48.652;9.250;2022-10-31T08:38:56;11.10;99.90
10010;DHT22;5044;48.652;9.250;2022-10-31T08:41:25;11.20;99.90
10010;DHT22;5044;48.652;9.250;2022-10-31T08:43:53;11.30;99.90
10010;DHT22;5044;48.652;9.250;2022-10-31T08:46:22;11.40;99.90
10010;DHT22;5044;48.652;9.250;2022-10-31T08:48:50;11.50;99.90
10010;DHT22;5044;48.652;9.250;2022-10-31T08:51:18;11.60;99.90
10010;DHT22;5044;48.652;9.250;2022-10-31T08:53:46;11.80;99.90
10010;DHT22;5044;48.652;9.250;2022-10-31T08:56:13;11.80;99.90
10010;DHT22;5044;48.652;9.250;2022-10-31T08:58:55;11.90;99.90
10010;DHT22;5044;48.652;9.250;2022-10-31T09:01:38;11.90;99.90
10010;DHT22;5044;48.652;9.250;2022-10-31T09:04:05;12.10;99.90
10010;DHT22;5044;48.652;9.250;2022-10-31T09:06:33;12.10;99.90
10010;DHT22;5044;48.652;9.250;2022-10-31T09:09:02;12.20;99.90
10010;DHT22;5044;48.652;9.250;2022-10-31T09:11:31;12.20;99.90
10010;DHT22;5044;48.652;9.250;2022-10-31T09:14:00;12.30;99.90
10010;DHT22;5044;48.652;9.250;2022-10-31T09:16:27;12.40;99.90
10010;DHT22;5044;48.652;9.250;2022-10-31T09:18:55;12.50;99.90
10010;DHT22;5044;48.652;9.250;2022-10-31T09:21:24;12.50;99.90
10010;DHT22;5044;48.652;9.250;2022-10-31T09:23:54;12.60;99.90
10010;DHT22;5044;48.652;9.250;2022-10-31T09:26:21;12.60;99.90
10010;DHT22;5044;48.652;9.250;2022-10-31T09:28:53;12.80;99.90
10010;DHT22;5044;48.652;9.250;2022-10-31T09:31:37;12.80;99.90
10010;DHT22;5044;48.652;9.250;2022-10-31T09:34:06;13.00;99.90
10010;DHT22;5044;48.652;9.250;2022-10-31T09:36:35;13.00;99.90
10010;DHT22;5044;48.652;9.250;2022-10-31T09:39:04;13.10;99.90
10010;DHT22;5044;48.652;9.250;2022-10-31T09:41:53;13.10;99.90
10010;DHT22;5044;48.652;9.250;2022-10-31T09:44:42;13.30;99.90
10010;DHT22;5044;48.652;9.250;2022-10-31T09:47:20;13.40;99.90
10010;DHT22;5044;48.652;9.250;2022-10-31T09:50:06;13.60;99.90
10010;DHT22;5044;48.652;9.250;2022-10-31T09:52:40;13.70;99.90
10010;DHT22;5044;48.652;9.250;2022-10-31T09:55:15;13.70;99.90
10010;DHT22;5044;48.652;9.250;2022-10-31T09:57:45;13.90;99.90
10010;DHT22;5044;48.652;9.250;2022-10-31T10:00:21;14.00;99.90
10010;DHT22;5044;48.652;9.250;2022-10-31T10:03:10;14.00;99.90
10010;DHT22;5044;48.652;9.250;2022-10-31T10:06:01;14.10;99.90
10010;DHT22;5044;48.652;9.250;2022-10-31T10:08:37;14.40;99.90
10010;DHT22;5044;48.652;9.250;2022-10-31T10:11:28;14.30;99.90
10010;DHT22;5044;48.652;9.250;2022-10-31T10:14:19;14.50;99.90
10010;DHT22;5044;48.652;9.250;2022-10-31T10:17:17;14.70;99.90
10010;DHT22;5044;48.652;9.250;2022-10-31T10:20:16;14.70;99.90
10010;DHT22;5044;48.652;9.250;2022-10-31T10:23:29;15.00;99.90
10010;DHT22;5044;48.652;9.250;2022-10-31T10:26:28;15.20;99.90
10010;DHT22;5044;48.652;9.250;2022-10-31T10:29:33;15.30;99.90
10010;DHT22;5044;48.652;9.250;2022-10-31T10:32:07;15.40;99.90
10010;DHT22;5044;48.652;9.250;2022-10-31T10:34:44;15.40;99.90
10010;DHT22;5044;48.652;9.250;2022-10-31T10:37:24;15.50;99.90
10010;DHT22;5044;48.652;9.250;2022-10-31T10:40:06;15.50;99.90
10010;DHT22;5044;48.652;9.250;2022-10-31T10:42:50;15.50;99.90
10010;DHT22;5044;48.652;9.250;2022-10-31T10:45:49;15.60;99.90
10010;DHT22;5044;48.652;9.250;2022-10-31T10:48:42;15.60;99.90
10010;DHT22;5044;48.652;9.250;2022-10-31T10:51:20;15.70;99.90
10010;DHT22;5044;48.652;9.250;2022-10-31T11:03:48;15.80;99.90
10010;DHT22;5044;48.652;9.250;2022-10-31T11:06:38;15.80;99.90
10010;DHT22;5044;48.652;9.250;2022-10-31T11:09:25;15.90;99.90
10010;DHT22;5044;48.652;9.250;2022-10-31T11:12:28;16.10;99.90
10010;DHT22;5044;48.652;9.250;2022-10-31T11:15:31;16.20;99.90
10010;DHT22;5044;48.652;9.250;2022-10-31T11:18:05;16.40;99.90
10010;DHT22;5044;48.652;9.250;2022-10-31T11:20:53;16.50;99.90
10010;DHT22;5044;48.652;9.250;2022-10-31T11:23:45;16.50;99.90
10010;DHT22;5044;48.652;9.250;2022-10-31T11:26:32;16.50;99.90
10010;DHT22;5044;48.652;9.250;2022-10-31T11:29:10;16.60;99.90
10010;DHT22;5044;48.652;9.250;2022-10-31T11:32:03;16.80;99.90
10010;DHT22;5044;48.652;9.250;2022-10-31T11:34:43;16.90;99.90
10010;DHT22;5044;48.652;9.250;2022-10-31T11:43:19;17.20;99.90
10010;DHT22;5044;48.652;9.250;2022-10-31T11:45:57;17.30;99.90
10010;DHT22;5044;48.652;9.250;2022-10-31T11:48:38;17.50;99.90
10010;DHT22;5044;48.652;9.250;2022-10-31T11:51:20;17.60;99.90
10010;DHT22;5044;48.652;9.250;2022-10-31T11:54:02;17.60;99.90
10010;DHT22;5044;48.652;9.250;2022-10-31T12:06:23;17.90;99.90
10010;DHT22;5044;48.652;9.250;2022-10-31T12:09:01;17.90;99.90
10010;DHT22;5044;48.652;9.250;2022-10-31T12:21:27;18.20;99.90
10010;DHT22;5044;48.652;9.250;2022-10-31T12:24:12;18.20;99.90
10010;DHT22;5044;48.652;9.250;2022-10-31T12:27:05;18.20;99.90
10010;DHT22;5044;48.652;9.250;2022-10-31T12:29:59;18.20;99.90
10010;DHT22;5044;48.652;9.250;2022-10-31T12:33:01;18.20;99.90
10010;DHT22;5044;48.652;9.250;2022-10-31T12:35:46;18.10;99.90
10010;DHT22;5044;48.652;9.250;2022-10-31T12:38:46;18.10;99.90
10010;DHT22;5044;48.652;9.250;2022-10-31T12:41:44;18.20;99.90
10010;DHT22;5044;48.652;9.250;2022-10-31T12:44:37;18.10;99.90
10010;DHT22;5044;48.652;9.250;2022-10-31T12:47:58;18.30;99.90
10010;DHT22;5044;48.652;9.250;2022-10-31T12:51:08;18.00;99.90
10010;DHT22;5044;48.652;9.250;2022-10-31T12:53:52;18.00;99.90
10010;DHT22;5044;48.652;9.250;2022-10-31T12:56:44;18.00;99.90
10010;DHT22;5044;48.652;9.250;2022-10-31T12:59:34;17.80;99.90
10010;DHT22;5044;48.652;9.250;2022-10-31T13:02:20;17.90;99.90
10010;DHT22;5044;48.652;9.250;2022-10-31T13:04:53;17.90;99.90
10010;DHT22;5044;48.652;9.250;2022-10-31T13:07:41;18.00;99.90
10010;DHT22;5044;48.652;9.250;2022-10-31T13:10:31;17.90;99.90
10010;DHT22;5044;48.652;9.250;2022-10-31T13:13:07;17.90;99.90
10010;DHT22;5044;48.652;9.250;2022-10-31T13:15:48;18.00;99.90
10010;DHT22;5044;48.652;9.250;2022-10-31T13:18:35;18.20;99.90
10010;DHT22;5044;48.652;9.250;2022-10-31T13:21:16;18.10;99.90
10010;DHT22;5044;48.652;9.250;2022-10-31T13:23:49;18.00;99.90
10010;DHT22;5044;48.652;9.250;2022-10-31T13:26:43;18.10;99.90
10010;DHT22;5044;48.652;9.250;2022-10-31T13:29:23;18.00;99.90
10010;DHT22;5044;48.652;9.250;2022-10-31T13:32:05;18.10;99.90
10010;DHT22;5044;48.652;9.250;2022-10-31T13:34:36;18.00;99.90
10010;DHT22;5044;48.652;9.250;2022-10-31T13:37:14;18.00;99.90
10010;DHT22;5044;48.652;9.250;2022-10-31T13:40:13;18.10;99.90
10010;DHT22;5044;48.652;9.250;2022-10-31T13:42:59;18.20;99.90
10010;DHT22;5044;48.652;9.250;2022-10-31T13:45:52;18.30;99.90
10010;DHT22;5044;48.652;9.250;2022-10-31T13:48:43;18.30;99.90
10010;DHT22;5044;48.652;9.250;2022-10-31T13:51:11;18.20;99.90
10010;DHT22;5044;48.652;9.250;2022-10-31T13:53:57;18.20;99.90
10010;DHT22;5044;48.652;9.250;2022-10-31T13:56:31;18.30;99.90
10010;DHT22;5044;48.652;9.250;2022-10-31T13:59:18;18.30;99.90
10010;DHT22;5044;48.652;9.250;2022-10-31T14:02:12;18.30;99.90
10010;DHT22;5044;48.652;9.250;2022-10-31T14:04:50;18.40;99.90
10010;DHT22;5044;48.652;9.250;2022-10-31T14:07:25;18.30;99.90
10010;DHT22;5044;48.652;9.250;2022-10-31T14:10:05;18.10;99.90
10010;DHT22;5044;48.652;9.250;2022-10-31T14:12:38;18.30;99.90
10010;DHT22;5044;48.652;9.250;2022-10-31T14:15:16;18.40;99.90
10010;DHT22;5044;48.652;9.250;2022-10-31T14:18:00;18.60;99.90
10010;DHT22;5044;48.652;9.250;2022-10-31T14:20:40;18.70;99.90
10010;DHT22;5044;48.652;9.250;2022-10-31T14:23:34;18.70;98.10
10010;DHT22;5044;48.652;9.250;2022-10-31T14:26:30;18.70;99.60
10010;DHT22;5044;48.652;9.250;2022-10-31T14:29:27;18.70;98.10
10010;DHT22;5044;48.652;9.250;2022-10-31T14:32:40;18.70;99.90
10010;DHT22;5044;48.652;9.250;2022-10-31T14:35:21;18.60;98.90
10010;DHT22;5044;48.652;9.250;2022-10-31T14:38:21;18.60;99.90
10010;DHT22;5044;48.652;9.250;2022-10-31T14:41:41;18.60;99.90
10010;DHT22;5044;48.652;9.250;2022-10-31T14:44:45;18.50;99.90
10010;DHT22;5044;48.652;9.250;2022-10-31T14:48:03;18.30;99.90
10010;DHT22;5044;48.652;9.250;2022-10-31T14:50:53;18.20;99.70
10010;DHT22;5044;48.652;9.250;2022-10-31T14:57:13;17.70;99.90
10010;DHT22;5044;48.652;9.250;2022-10-31T15:00:03;17.60;99.90
10010;DHT22;5044;48.652;9.250;2022-10-31T15:02:45;17.60;99.90
10010;DHT22;5044;48.652;9.250;2022-10-31T15:05:51;17.60;99.90
10010;DHT22;5044;48.652;9.250;2022-10-31T15:08:33;17.50;99.90
10010;DHT22;5044;48.652;9.250;2022-10-31T15:11:10;17.40;99.90
10010;DHT22;5044;48.652;9.250;2022-10-31T15:13:46;17.50;99.90
10010;DHT22;5044;48.652;9.250;2022-10-31T15:16:31;17.40;99.90
10010;DHT22;5044;48.652;9.250;2022-10-31T15:19:04;17.30;99.90
10010;DHT22;5044;48.652;9.250;2022-10-31T15:21:35;17.40;99.90
10010;DHT22;5044;48.652;9.250;2022-10-31T15:24:03;17.30;99.90
10010;DHT22;5044;48.652;9.250;2022-10-31T15:26:37;17.20;99.90
10010;DHT22;5044;48.652;9.250;2022-10-31T15:29:15;17.10;99.90
10010;DHT22;5044;48.652;9.250;2022-10-31T15:32:22;16.90;99.90
10010;DHT22;5044;48.652;9.250;2022-10-31T15:35:09;16.80;99.90
10010;DHT22;5044;48.652;9.250;2022-10-31T18:34:23;12.50;99.90
10010;DHT22;5044;48.652;9.250;2022-10-31T18:36:50;12.40;99.90
10010;DHT22;5044;48.652;9.250;2022-10-31T18:39:37;12.40;99.90
10010;DHT22;5044;48.652;9.250;2022-10-31T18:42:14;12.40;99.90
10010;DHT22;5044;48.652;9.250;2022-10-31T18:44:42;12.40;99.90
10010;DHT22;5044;48.652;9.250;2022-10-31T18:47:12;12.50;99.90
10010;DHT22;5044;48.652;9.250;2022-10-31T18:49:46;12.50;99.90
10010;DHT22;5044;48.652;9.250;2022-10-31T18:52:15;12.50;99.90
10010;DHT22;5044;48.652;9.250;2022-10-31T18:54:43;12.50;99.90
10010;DHT22;5044;48.652;9.250;2022-10-31T18:57:13;12.50;99.90
10010;DHT22;5044;48.652;9.250;2022-10-31T18:59:41;12.50;99.90
10010;DHT22;5044;48.652;9.250;2022-10-31T19:02:11;12.50;99.90
10010;DHT22;5044;48.652;9.250;2022-10-31T19:04:39;12.40;99.90
10010;DHT22;5044;48.652;9.250;2022-10-31T19:07:12;12.40;99.90
10010;DHT22;5044;48.652;9.250;2022-10-31T19:09:40;12.40;99.90
10010;DHT22;5044;48.652;9.250;2022-10-31T19:12:10;12.40;99.90
10010;DHT22;5044;48.652;9.250;2022-10-31T19:14:38;12.40;99.90
10010;DHT22;5044;48.652;9.250;2022-10-31T19:17:06;12.40;99.90
10010;DHT22;5044;48.652;9.250;2022-10-31T19:19:35;12.30;99.90
10010;DHT22;5044;48.652;9.250;2022-10-31T19:22:03;12.40;99.90
10010;DHT22;5044;48.652;9.250;2022-10-31T19:24:33;12.30;99.90
10010;DHT22;5044;48.652;9.250;2022-10-31T19:27:03;12.30;99.90
10010;DHT22;5044;48.652;9.250;2022-10-31T19:29:30;12.20;99.90
10010;DHT22;5044;48.652;9.250;2022-10-31T19:32:09;12.20;99.90
10010;DHT22;5044;48.652;9.250;2022-10-31T19:34:36;12.10;99.90
10010;DHT22;5044;48.652;9.250;2022-10-31T19:37:04;12.10;99.90
10010;DHT22;5044;48.652;9.250;2022-10-31T19:39:35;12.20;99.90
10010;DHT22;5044;48.652;9.250;2022-10-31T19:42:04;12.10;99.90
10010;DHT22;5044;48.652;9.250;2022-10-31T19:44:32;12.20;99.90
10010;DHT22;5044;48.652;9.250;2022-10-31T19:46:59;12.10;99.90
10010;DHT22;5044;48.652;9.250;2022-10-31T19:51:55;12.20;99.90
10010;DHT22;5044;48.652;9.250;2022-10-31T19:54:32;12.20;99.90
10010;DHT22;5044;48.652;9.250;2022-10-31T19:57:14;12.30;99.90
10010;DHT22;5044;48.652;9.250;2022-10-31T19:59:43;12.10;99.90
10010;DHT22;5044;48.652;9.250;2022-10-31T20:02:13;12.40;99.90
10010;DHT22;5044;48.652;9.250;2022-10-31T20:04:44;12.20;99.90
10010;DHT22;5044;48.652;9.250;2022-10-31T20:07:11;12.10;99.90
10010;DHT22;5044;48.652;9.250;2022-10-31T20:09:46;12.00;99.90
10010;DHT22;5044;48.652;9.250;2022-10-31T20:12:13;12.30;99.90
10010;DHT22;5044;48.652;9.250;2022-10-31T20:14:42;11.90;99.90
10010;DHT22;5044;48.652;9.250;2022-10-31T20:17:10;12.10;99.90
10010;DHT22;5044;48.652;9.250;2022-10-31T20:19:38;12.10;99.90
10010;DHT22;5044;48.652;9.250;2022-10-31T20:22:09;11.90;99.90
10010;DHT22;5044;48.652;9.250;2022-10-31T20:24:38;12.20;99.90
10010;DHT22;5044;48.652;9.250;2022-10-31T20:27:08;12.20;99.90
10010;DHT22;5044;48.652;9.250;2022-10-31T20:29:37;11.90;99.90
10010;DHT22;5044;48.652;9.250;2022-10-31T20:32:11;12.10;99.90
10010;DHT22;5044;48.652;9.250;2022-10-31T20:34:42;11.90;99.90
10010;DHT22;5044;48.652;9.250;2022-10-31T20:37:12;11.90;99.90
10010;DHT22;5044;48.652;9.250;2022-10-31T20:39:40;11.90;99.90
10010;DHT22;5044;48.652;9.250;2022-10-31T20:42:10;12.00;99.90
10010;DHT22;5044;48.652;9.250;2022-10-31T20:44:37;11.90;99.90
10010;DHT22;5044;48.652;9.250;2022-10-31T20:47:05;11.90;99.90
10010;DHT22;5044;48.652;9.250;2022-10-31T20:49:42;11.90;99.90
10010;DHT22;5044;48.652;9.250;2022-10-31T20:52:10;11.90;99.90
10010;DHT22;5044;48.652;9.250;2022-10-31T20:54:38;11.80;99.90
10010;DHT22;5044;48.652;9.250;2022-10-31T20:57:17;11.80;99.90
10010;DHT22;5044;48.652;9.250;2022-10-31T20:59:44;11.90;99.90
10010;DHT22;5044;48.652;9.250;2022-10-31T21:02:13;11.90;99.90
10010;DHT22;5044;48.652;9.250;2022-10-31T21:04:45;11.80;99.90
10010;DHT22;5044;48.652;9.250;2022-10-31T21:07:12;12.10;99.90
10010;DHT22;5044;48.652;9.250;2022-10-31T21:09:42;11.80;99.90
10010;DHT22;5044;48.652;9.250;2022-10-31T21:12:25;11.70;99.90
10010;DHT22;5044;48.652;9.250;2022-10-31T21:14:57;11.70;99.90
10010;DHT22;5044;48.652;9.250;2022-10-31T21:17:27;11.80;99.90
10010;DHT22;5044;48.652;9.250;2022-10-31T21:19:57;11.80;99.90
10010;DHT22;5044;48.652;9.250;2022-10-31T21:22:29;11.80;99.90
10010;DHT22;5044;48.652;9.250;2022-10-31T21:24:59;11.90;99.90
10010;DHT22;5044;48.652;9.250;2022-10-31T21:27:29;11.60;99.90
10010;DHT22;5044;48.652;9.250;2022-10-31T21:29:57;11.80;99.90
10010;DHT22;5044;48.652;9.250;2022-10-31T21:32:24;12.00;99.90
10010;DHT22;5044;48.652;9.250;2022-10-31T21:34:52;12.00;99.90
10010;DHT22;5044;48.652;9.250;2022-10-31T21:37:20;11.80;99.90
10010;DHT22;5044;48.652;9.250;2022-10-31T21:39:48;12.00;99.90
10010;DHT22;5044;48.652;9.250;2022-10-31T21:42:19;11.80;99.90
10010;DHT22;5044;48.652;9.250;2022-10-31T21:44:53;11.80;99.90
10010;DHT22;5044;48.652;9.250;2022-10-31T21:47:24;11.80;99.90
10010;DHT22;5044;48.652;9.250;2022-10-31T21:49:56;11.90;99.90
10010;DHT22;5044;48.652;9.250;2022-10-31T21:52:24;11.80;99.90
10010;DHT22;5044;48.652;9.250;2022-10-31T21:54:59;12.00;99.90
10010;DHT22;5044;48.652;9.250;2022-10-31T21:57:28;11.80;99.90
10010;DHT22;5044;48.652;9.250;2022-10-31T22:00:08;11.70;99.90
10010;DHT22;5044;48.652;9.250;2022-10-31T22:02:39;11.80;99.90
10010;DHT22;5044;48.652;9.250;2022-10-31T22:05:09;11.60;99.90
10010;DHT22;5044;48.652;9.250;2022-10-31T22:07:38;11.50;99.90
10010;DHT22;5044;48.652;9.250;2022-10-31T22:10:22;11.70;99.90
10010;DHT22;5044;48.652;9.250;2022-10-31T22:13:06;11.70;99.90
10010;DHT22;5044;48.652;9.250;2022-10-31T22:15:36;12.10;99.90
10010;DHT22;5044;48.652;9.250;2022-10-31T22:18:05;11.90;99.90
10010;DHT22;5044;48.652;9.250;2022-10-31T22:20:46;11.80;99.90
10010;DHT22;5044;48.652;9.250;2022-10-31T22:23:14;11.30;99.90
10010;DHT22;5044;48.652;9.250;2022-10-31T22:25:42;11.50;99.90
10010;DHT22;5044;48.652;9.250;2022-10-31T22:28:14;11.40;99.90
10010;DHT22;5044;48.652;9.250;2022-10-31T22:30:43;11.50;99.90
10010;DHT22;5044;48.652;9.250;2022-10-31T22:33:13;11.60;99.90
10010;DHT22;5044;48.652;9.250;2022-10-31T22:35:41;11.20;99.90
10010;DHT22;5044;48.652;9.250;2022-10-31T22:38:22;11.30;99.90
10010;DHT22;5044;48.652;9.250;2022-10-31T22:40:49;11.30;99.90
10010;DHT22;5044;48.652;9.250;2022-10-31T22:43:16;11.50;99.90
10010;DHT22;5044;48.652;9.250;2022-10-31T22:45:55;11.30;99.90
10010;DHT22;5044;48.652;9.250;2022-10-31T22:48:33;11.30;99.90
10010;DHT22;5044;48.652;9.250;2022-10-31T22:51:07;11.40;99.90
10010;DHT22;5044;48.652;9.250;2022-10-31T22:53:36;11.20;99.90
10010;DHT22;5044;48.652;9.250;2022-10-31T22:56:11;11.30;99.90
10010;DHT22;5044;48.652;9.250;2022-10-31T22:58:40;11.20;99.90
10010;DHT22;5044;48.652;9.250;2022-10-31T23:10:22;11.20;99.90
10010;DHT22;5044;48.652;9.250;2022-10-31T23:12:58;11.40;99.90
10010;DHT22;5044;48.652;9.250;2022-10-31T23:15:42;11.10;99.90
10010;DHT22;5044;48.652;9.250;2022-10-31T23:18:13;11.20;99.90
10010;DHT22;5044;48.652;9.250;2022-10-31T23:20:50;11.10;99.90
10010;DHT22;5044;48.652;9.250;2022-10-31T23:23:18;11.10;99.90
10010;DHT22;5044;48.652;9.250;2022-10-31T23:25:53;10.90;99.90
10010;DHT22;5044;48.652;9.250;2022-10-31T23:28:43;11.10;99.90
10010;DHT22;5044;48.652;9.250;2022-10-31T23:31:24;11.10;99.90
10010;DHT22;5044;48.652;9.250;2022-10-31T23:33:56;11.10;99.90
10010;DHT22;5044;48.652;9.250;2022-10-31T23:36:23;11.10;99.90
10010;DHT22;5044;48.652;9.250;2022-10-31T23:38:51;11.00;99.90
10010;DHT22;5044;48.652;9.250;2022-10-31T23:41:35;11.20;99.90
10010;DHT22;5044;48.652;9.250;2022-10-31T23:44:08;10.90;99.90
10010;DHT22;5044;48.652;9.250;2022-10-31T23:46:38;10.90;99.90
10010;DHT22;5044;48.652;9.250;2022-10-31T23:49:06;11.00;99.90
10010;DHT22;5044;48.652;9.250;2022-10-31T23:51:33;11.00;99.90
10010;DHT22;5044;48.652;9.250;2022-10-31T23:54:04;10.90;99.90
10010;DHT22;5044;48.652;9.250;2022-10-31T23:56:31;11.00;99.90
10010;DHT22;5044;48.652;9.250;2022-10-31T23:59:01;10.80;99.90
